createdAt,value
2019-05-30T00:00:12.543Z,420.37
2019-05-30T00:01:00.681Z,420.04
2019-05-30T00:02:00.471Z,420.28
2019-05-30T00:03:00.271Z,420.26
2019-05-30T00:04:00.362Z,420.10
2019-05-30T00:05:00.316Z,420.26
2019-05-30T00:06:00.547Z,420.02
2019-05-30T00:07:00.540Z,420.29
2019-05-30T00:08:00.338Z,420.38
2019-05-30T00:09:00.512Z,420.32
2019-05-30T00:10:00.575Z,420.50
2019-05-30T00:11:00.612Z,420.24
2019-05-30T00:12:00.813Z,420.46
2019-05-30T00:13:00.642Z,420.37
2019-05-30T00:14:00.683Z,420.37
2019-05-30T00:15:00.569Z,420.24
2019-05-30T00:16:00.713Z,420.06
2019-05-30T00:17:00.830Z,420.22
2019-05-30T00:18:00.772Z,420.45
2019-05-30T00:19:00.787Z,420.32
2019-05-30T00:20:00.684Z,420.05
2019-05-30T00:21:00.605Z,420.30
2019-05-30T00:22:00.742Z,420.07
2019-05-30T00:22:59.432Z,420.08
2019-05-30T00:23:59.971Z,420.39
2019-05-30T00:25:00.060Z,420.25
2019-05-30T00:25:59.385Z,420.33
2019-05-30T00:27:00.276Z,420.50
2019-05-30T00:27:59.400Z,420.14
2019-05-30T00:29:00.290Z,420.49
2019-05-30T00:29:59.346Z,420.23
2019-05-30T00:31:00.384Z,420.19
2019-05-30T00:31:59.431Z,420.36
2019-05-30T00:33:00.594Z,420.39
2019-05-30T00:33:59.571Z,420.29
2019-05-30T00:34:59.668Z,420.37
2019-05-30T00:35:59.862Z,420.43
2019-05-30T00:36:59.854Z,420.33
2019-05-30T00:37:59.710Z,420.72
2019-05-30T00:38:59.761Z,420.54
2019-05-30T00:39:59.860Z,420.24
2019-05-30T00:40:59.974Z,420.45
2019-05-30T00:41:59.984Z,420.07
2019-05-30T00:43:00.023Z,420.20
2019-05-30T00:43:59.943Z,420.63
2019-05-30T00:44:59.956Z,420.34
2019-05-30T00:46:00.017Z,420.26
2019-05-30T00:47:00.499Z,420.32
2019-05-30T00:48:00.127Z,420.55
2019-05-30T00:49:00.180Z,420.32
2019-05-30T00:50:00.196Z,420.16
2019-05-30T00:51:00.210Z,420.77
2019-05-30T00:52:00.440Z,420.55
2019-05-30T00:52:59.092Z,420.27
2019-05-30T00:53:59.098Z,420.75
2019-05-30T00:54:59.066Z,420.23
2019-05-30T00:56:01.537Z,420.31
2019-05-30T00:56:59.043Z,420.47
2019-05-30T00:57:59.059Z,420.20
2019-05-30T00:58:59.029Z,420.29
2019-05-30T00:59:59.034Z,420.12
2019-05-30T01:01:01.030Z,420.33
2019-05-30T01:01:58.983Z,420.20
2019-05-30T01:02:59.863Z,420.01
2019-05-30T01:03:58.969Z,420.35
2019-05-30T01:04:58.963Z,420.13
2019-05-30T01:05:58.947Z,420.24
2019-05-30T01:06:59.110Z,420.44
2019-05-30T01:07:58.933Z,420.34
2019-05-30T01:08:59.100Z,420.64
2019-05-30T01:09:59.145Z,420.58
2019-05-30T01:10:59.013Z,420.42
2019-05-30T01:11:59.105Z,420.17
2019-05-30T01:12:59.916Z,419.85
2019-05-30T01:13:59.023Z,420.11
2019-05-30T01:14:58.936Z,420.34
2019-05-30T01:15:58.996Z,420.29
2019-05-30T01:16:59.043Z,420.11
2019-05-30T01:17:59.119Z,420.39
2019-05-30T01:18:59.098Z,420.34
2019-05-30T01:19:59.103Z,420.54
2019-05-30T01:20:59.142Z,420.34
2019-05-30T01:21:59.127Z,420.13
2019-05-30T01:22:59.177Z,420.48
2019-05-30T01:23:59.199Z,420.39
2019-05-30T01:24:59.073Z,420.06
2019-05-30T01:25:59.351Z,420.50
2019-05-30T01:26:59.219Z,420.17
2019-05-30T01:27:59.471Z,420.24
2019-05-30T01:28:59.317Z,420.40
2019-05-30T01:29:59.412Z,420.41
2019-05-30T01:31:02.988Z,420.16
2019-05-30T01:31:59.658Z,420.41
2019-05-30T01:32:59.650Z,420.49
2019-05-30T01:33:59.495Z,420.45
2019-05-30T01:34:59.753Z,420.17
2019-05-30T01:35:59.648Z,420.25
2019-05-30T01:36:59.846Z,420.28
2019-05-30T01:37:59.684Z,420.60
2019-05-30T01:38:59.613Z,420.33
2019-05-30T01:39:59.699Z,420.29
2019-05-30T01:40:59.616Z,420.29
2019-05-30T01:41:59.669Z,420.22
2019-05-30T01:42:59.823Z,420.10
2019-05-30T01:43:59.750Z,420.21
2019-05-30T01:44:58.502Z,420.42
2019-05-30T01:45:58.502Z,420.29
2019-05-30T01:46:58.486Z,420.07
2019-05-30T01:47:58.498Z,420.23
2019-05-30T01:48:58.462Z,420.39
2019-05-30T01:49:58.449Z,420.21
2019-05-30T01:51:00.314Z,420.16
2019-05-30T01:51:58.573Z,420.46
2019-05-30T01:52:58.540Z,420.47
2019-05-30T01:53:58.408Z,420.25
2019-05-30T01:54:58.580Z,420.21
2019-05-30T01:55:58.576Z,420.06
2019-05-30T01:56:58.497Z,420.53
2019-05-30T01:57:58.718Z,420.39
2019-05-30T01:58:58.688Z,420.37
2019-05-30T01:59:58.663Z,420.21
2019-05-30T02:00:58.796Z,420.23
2019-05-30T02:01:58.907Z,420.46
2019-05-30T02:02:58.844Z,420.52
2019-05-30T02:03:59.072Z,420.19
2019-05-30T02:04:58.843Z,420.29
2019-05-30T02:05:58.919Z,420.30
2019-05-30T02:06:59.212Z,420.42
2019-05-30T02:07:58.996Z,420.22
2019-05-30T02:08:59.130Z,420.25
2019-05-30T02:09:59.144Z,420.29
2019-05-30T02:10:59.195Z,420.29
2019-05-30T02:11:59.301Z,420.44
2019-05-30T02:12:59.294Z,420.48
2019-05-30T02:13:59.461Z,419.94
2019-05-30T02:14:59.324Z,420.21
2019-05-30T02:15:59.490Z,420.40
2019-05-30T02:16:59.505Z,420.49
2019-05-30T02:17:59.426Z,419.96
2019-05-30T02:18:59.467Z,420.55
2019-05-30T02:19:58.114Z,420.28
2019-05-30T02:20:58.107Z,420.49
2019-05-30T02:21:58.095Z,420.45
2019-05-30T02:22:58.143Z,420.44
2019-05-30T02:23:58.075Z,420.05
2019-05-30T02:24:58.087Z,420.11
2019-05-30T02:25:58.053Z,420.34
2019-05-30T02:26:58.041Z,420.34
2019-05-30T02:27:58.054Z,420.49
2019-05-30T02:28:58.030Z,420.36
2019-05-30T02:29:58.003Z,420.35
2019-05-30T02:30:58.002Z,420.33
2019-05-30T02:31:57.988Z,420.32
2019-05-30T02:32:57.980Z,420.34
2019-05-30T02:33:57.985Z,420.26
2019-05-30T02:34:57.965Z,420.62
2019-05-30T02:35:57.950Z,420.33
2019-05-30T02:36:57.934Z,420.39
2019-05-30T02:37:57.928Z,420.35
2019-05-30T02:38:57.924Z,420.47
2019-05-30T02:40:01.009Z,420.30
2019-05-30T02:40:58.898Z,420.33
2019-05-30T02:41:57.884Z,420.36
2019-05-30T02:42:57.860Z,420.55
2019-05-30T02:43:57.876Z,420.42
2019-05-30T02:44:57.861Z,420.31
2019-05-30T02:45:57.851Z,420.38
2019-05-30T02:46:57.828Z,420.80
2019-05-30T02:47:58.362Z,420.30
2019-05-30T02:48:59.614Z,420.31
2019-05-30T02:49:58.391Z,420.32
2019-05-30T02:50:57.807Z,420.20
2019-05-30T02:51:57.814Z,420.32
2019-05-30T02:52:57.783Z,420.34
2019-05-30T02:53:57.892Z,420.32
2019-05-30T02:54:57.724Z,420.31
2019-05-30T02:55:57.726Z,420.21
2019-05-30T02:56:57.714Z,420.48
2019-05-30T02:57:57.686Z,420.37
2019-05-30T02:58:57.718Z,420.67
2019-05-30T02:59:57.679Z,420.28
2019-05-30T03:00:57.684Z,420.24
2019-05-30T03:02:01.829Z,420.25
2019-05-30T03:02:58.641Z,420.65
2019-05-30T03:03:57.651Z,420.33
2019-05-30T03:04:57.641Z,420.39
2019-05-30T03:05:57.616Z,420.32
2019-05-30T03:06:57.610Z,420.60
2019-05-30T03:07:57.600Z,420.22
2019-05-30T03:08:57.585Z,420.40
2019-05-30T03:09:57.560Z,420.40
2019-05-30T03:10:57.550Z,420.69
2019-05-30T03:11:57.542Z,420.26
2019-05-30T03:12:57.551Z,420.34
2019-05-30T03:13:57.538Z,420.34
2019-05-30T03:14:57.518Z,420.40
2019-05-30T03:15:57.498Z,420.38
2019-05-30T03:16:57.492Z,420.25
2019-05-30T03:17:57.480Z,420.16
2019-05-30T03:18:57.490Z,420.09
2019-05-30T03:19:57.470Z,420.24
2019-05-30T03:20:57.449Z,420.29
2019-05-30T03:21:57.432Z,420.62
2019-05-30T03:22:57.417Z,420.65
2019-05-30T03:23:57.436Z,420.18
2019-05-30T03:24:57.417Z,420.43
2019-05-30T03:25:57.390Z,420.55
2019-05-30T03:26:57.381Z,420.44
2019-05-30T03:27:57.372Z,420.32
2019-05-30T03:28:57.371Z,420.38
2019-05-30T03:29:57.352Z,420.34
2019-05-30T03:30:57.348Z,420.38
2019-05-30T03:31:57.329Z,420.16
2019-05-30T03:33:16.969Z,420.37
2019-05-30T03:33:58.345Z,420.28
2019-05-30T03:34:57.294Z,420.62
2019-05-30T03:35:57.302Z,420.16
2019-05-30T03:36:57.261Z,420.29
2019-05-30T03:37:57.274Z,420.45
2019-05-30T03:38:57.276Z,420.15
2019-05-30T03:39:57.259Z,420.44
2019-05-30T03:40:57.222Z,420.53
2019-05-30T03:41:57.216Z,420.35
2019-05-30T03:42:57.223Z,420.42
2019-05-30T03:43:57.209Z,420.36
2019-05-30T03:44:57.186Z,420.66
2019-05-30T03:45:57.172Z,420.64
2019-05-30T03:46:57.157Z,420.69
2019-05-30T03:47:57.152Z,420.57
2019-05-30T03:48:57.151Z,420.40
2019-05-30T03:49:57.136Z,420.32
2019-05-30T03:50:57.119Z,420.34
2019-05-30T03:51:57.116Z,420.45
2019-05-30T03:52:57.096Z,420.39
2019-05-30T03:53:57.092Z,420.43
2019-05-30T03:54:57.066Z,420.62
2019-05-30T03:55:57.054Z,420.43
2019-05-30T03:56:57.081Z,420.27
2019-05-30T03:57:57.034Z,420.50
2019-05-30T03:58:57.047Z,420.19
2019-05-30T03:59:57.008Z,420.35
2019-05-30T04:00:56.997Z,420.30
2019-05-30T04:01:56.994Z,420.38
2019-05-30T04:02:59.018Z,420.62
2019-05-30T04:03:57.006Z,420.42
2019-05-30T04:04:56.956Z,420.35
2019-05-30T04:05:56.950Z,420.55
2019-05-30T04:06:56.988Z,420.57
2019-05-30T04:07:56.938Z,420.51
2019-05-30T04:08:56.921Z,420.20
2019-05-30T04:09:56.919Z,420.69
2019-05-30T04:10:56.902Z,420.45
2019-05-30T04:11:56.892Z,420.62
2019-05-30T04:12:56.877Z,420.63
2019-05-30T04:13:56.873Z,420.21
2019-05-30T04:14:57.430Z,420.57
2019-05-30T04:15:56.838Z,420.50
2019-05-30T04:16:56.889Z,420.50
2019-05-30T04:17:56.855Z,420.37
2019-05-30T04:18:56.801Z,420.17
2019-05-30T04:19:56.850Z,420.45
2019-05-30T04:20:56.779Z,420.12
2019-05-30T04:21:56.770Z,420.63
2019-05-30T04:22:56.779Z,420.63
2019-05-30T04:23:56.748Z,420.71
2019-05-30T04:24:56.754Z,420.45
2019-05-30T04:26:00.353Z,420.64
2019-05-30T04:26:56.702Z,420.55
2019-05-30T04:27:56.706Z,420.66
2019-05-30T04:28:56.689Z,420.40
2019-05-30T04:29:56.698Z,420.44
2019-05-30T04:30:56.664Z,420.32
2019-05-30T04:31:56.664Z,420.42
2019-05-30T04:33:16.050Z,420.41
2019-05-30T04:33:57.627Z,420.58
2019-05-30T04:34:56.766Z,420.49
2019-05-30T04:35:56.615Z,420.64
2019-05-30T04:36:56.603Z,420.56
2019-05-30T04:37:56.595Z,420.66
2019-05-30T04:38:56.585Z,420.66
2019-05-30T04:39:56.595Z,420.87
2019-05-30T04:40:56.562Z,420.51
2019-05-30T04:41:56.562Z,420.51
2019-05-30T04:42:56.541Z,420.69
2019-05-30T04:43:56.521Z,420.27
2019-05-30T04:44:56.522Z,420.67
2019-05-30T04:45:56.503Z,420.46
2019-05-30T04:46:56.487Z,420.80
2019-05-30T04:47:56.481Z,420.80
2019-05-30T04:48:56.494Z,420.73
2019-05-30T04:49:56.500Z,420.70
2019-05-30T04:50:56.443Z,420.62
2019-05-30T04:51:56.433Z,420.86
2019-05-30T04:52:56.437Z,420.61
2019-05-30T04:53:56.420Z,420.79
2019-05-30T04:54:57.314Z,420.82
2019-05-30T04:55:56.405Z,420.82
2019-05-30T04:56:56.388Z,420.56
2019-05-30T04:57:56.381Z,420.64
2019-05-30T04:58:56.364Z,420.53
2019-05-30T04:59:56.383Z,420.64
2019-05-30T05:00:56.349Z,420.44
2019-05-30T05:01:56.380Z,420.68
2019-05-30T05:02:56.315Z,420.70
2019-05-30T05:03:56.285Z,420.24
2019-05-30T05:04:56.306Z,420.69
2019-05-30T05:05:56.292Z,420.77
2019-05-30T05:06:56.266Z,420.52
2019-05-30T05:07:56.250Z,420.46
2019-05-30T05:08:56.261Z,420.56
2019-05-30T05:09:56.281Z,420.56
2019-05-30T05:10:56.218Z,420.64
2019-05-30T05:11:56.210Z,420.55
2019-05-30T05:12:56.206Z,420.92
2019-05-30T05:13:56.233Z,420.50
2019-05-30T05:14:56.211Z,420.66
2019-05-30T05:15:56.841Z,420.57
2019-05-30T05:16:56.162Z,421.01
2019-05-30T05:17:56.147Z,420.52
2019-05-30T05:18:56.152Z,420.56
2019-05-30T05:19:56.126Z,420.56
2019-05-30T05:20:56.142Z,420.43
2019-05-30T05:21:56.100Z,420.22
2019-05-30T05:22:56.089Z,420.51
2019-05-30T05:23:56.070Z,420.88
2019-05-30T05:24:56.063Z,420.86
2019-05-30T05:26:00.898Z,420.40
2019-05-30T05:26:57.046Z,420.65
2019-05-30T05:27:56.037Z,420.53
2019-05-30T05:28:56.028Z,420.26
2019-05-30T05:29:56.014Z,420.83
2019-05-30T05:30:56.001Z,420.75
2019-05-30T05:31:55.992Z,420.46
2019-05-30T05:32:55.979Z,420.95
2019-05-30T05:33:57.338Z,420.48
2019-05-30T05:34:55.954Z,420.78
2019-05-30T05:35:55.968Z,420.31
2019-05-30T05:36:55.934Z,420.52
2019-05-30T05:37:55.964Z,420.87
2019-05-30T05:38:55.911Z,420.63
2019-05-30T05:39:55.886Z,420.86
2019-05-30T05:40:55.908Z,420.48
2019-05-30T05:41:55.876Z,420.54
2019-05-30T05:42:55.872Z,420.43
2019-05-30T05:43:55.848Z,420.68
2019-05-30T05:44:55.844Z,420.70
2019-05-30T05:45:55.860Z,420.45
2019-05-30T05:46:55.812Z,420.23
2019-05-30T05:47:55.806Z,420.54
2019-05-30T05:48:55.796Z,420.54
2019-05-30T05:49:55.869Z,420.50
2019-05-30T05:50:55.818Z,420.39
2019-05-30T05:51:55.766Z,420.36
2019-05-30T05:52:55.749Z,420.65
2019-05-30T05:53:55.742Z,420.40
2019-05-30T05:54:55.737Z,420.44
2019-05-30T05:55:55.745Z,420.72
2019-05-30T05:56:55.714Z,420.37
2019-05-30T05:57:55.702Z,420.68
2019-05-30T05:58:55.688Z,420.38
2019-05-30T05:59:55.675Z,420.31
2019-05-30T06:00:55.689Z,420.59
2019-05-30T06:01:55.652Z,420.46
2019-05-30T06:02:55.643Z,420.61
2019-05-30T06:04:11.672Z,420.30
2019-05-30T06:04:56.630Z,420.83
2019-05-30T06:05:55.700Z,420.47
2019-05-30T06:06:55.606Z,420.48
2019-05-30T06:07:55.585Z,420.57
2019-05-30T06:08:55.578Z,420.45
2019-05-30T06:09:55.571Z,420.51
2019-05-30T06:10:55.584Z,420.37
2019-05-30T06:11:55.547Z,420.80
2019-05-30T06:12:55.528Z,420.44
2019-05-30T06:13:55.523Z,420.43
2019-05-30T06:14:55.514Z,420.38
2019-05-30T06:15:55.520Z,420.30
2019-05-30T06:16:55.965Z,420.53
2019-05-30T06:17:56.358Z,420.43
2019-05-30T06:18:55.503Z,420.87
2019-05-30T06:19:55.451Z,420.33
2019-05-30T06:20:55.463Z,420.56
2019-05-30T06:21:55.437Z,420.66
2019-05-30T06:22:55.417Z,420.76
2019-05-30T06:23:55.414Z,420.57
2019-05-30T06:24:55.402Z,420.30
2019-05-30T06:25:55.551Z,420.43
2019-05-30T06:26:55.505Z,420.43
2019-05-30T06:27:55.536Z,420.45
2019-05-30T06:28:55.384Z,420.47
2019-05-30T06:29:55.376Z,420.53
2019-05-30T06:30:58.729Z,420.44
2019-05-30T06:31:55.372Z,420.69
2019-05-30T06:32:55.317Z,420.39
2019-05-30T06:33:55.298Z,420.34
2019-05-30T06:34:55.277Z,420.75
2019-05-30T06:35:55.273Z,420.45
2019-05-30T06:36:55.306Z,420.60
2019-05-30T06:37:55.243Z,420.26
2019-05-30T06:38:55.261Z,420.54
2019-05-30T06:39:55.254Z,420.47
2019-05-30T06:40:55.227Z,420.28
2019-05-30T06:41:55.225Z,420.32
2019-05-30T06:42:55.189Z,420.57
2019-05-30T06:43:55.180Z,420.60
2019-05-30T06:44:55.177Z,420.40
2019-05-30T06:45:55.181Z,420.38
2019-05-30T06:46:55.244Z,420.39
2019-05-30T06:47:55.132Z,420.58
2019-05-30T06:48:55.133Z,420.07
2019-05-30T06:49:55.124Z,420.22
2019-05-30T06:50:55.104Z,420.32
2019-05-30T06:51:55.124Z,420.47
2019-05-30T06:52:55.093Z,420.69
2019-05-30T06:53:55.101Z,420.56
2019-05-30T06:54:55.078Z,420.38
2019-05-30T06:55:55.054Z,420.52
2019-05-30T06:56:55.054Z,420.29
2019-05-30T06:57:55.036Z,420.36
2019-05-30T06:58:55.024Z,420.24
2019-05-30T06:59:55.009Z,420.40
2019-05-30T07:00:54.995Z,420.18
2019-05-30T07:01:55.847Z,420.14
2019-05-30T07:02:55.042Z,420.18
2019-05-30T07:03:55.084Z,420.38
2019-05-30T07:04:55.576Z,420.10
2019-05-30T07:05:55.468Z,420.25
2019-05-30T07:06:55.203Z,420.48
2019-05-30T07:07:54.960Z,420.49
2019-05-30T07:08:54.911Z,420.17
2019-05-30T07:09:54.908Z,420.29
2019-05-30T07:10:54.884Z,419.94
2019-05-30T07:11:54.890Z,419.87
2019-05-30T07:12:54.878Z,420.40
2019-05-30T07:13:54.852Z,420.37
2019-05-30T07:14:54.952Z,420.11
2019-05-30T07:15:54.841Z,420.42
2019-05-30T07:16:54.856Z,419.96
2019-05-30T07:17:54.854Z,420.26
2019-05-30T07:18:54.840Z,420.44
2019-05-30T07:19:54.821Z,420.31
2019-05-30T07:20:54.794Z,420.27
2019-05-30T07:21:54.789Z,420.49
2019-05-30T07:22:54.783Z,420.19
2019-05-30T07:23:54.741Z,420.35
2019-05-30T07:24:54.736Z,420.21
2019-05-30T07:25:54.725Z,420.19
2019-05-30T07:26:54.722Z,420.33
2019-05-30T07:27:54.698Z,420.29
2019-05-30T07:28:54.691Z,420.09
2019-05-30T07:29:54.688Z,420.40
2019-05-30T07:30:54.654Z,420.22
2019-05-30T07:31:54.704Z,420.19
2019-05-30T07:32:54.661Z,420.34
2019-05-30T07:33:54.640Z,420.14
2019-05-30T07:35:06.121Z,420.44
2019-05-30T07:35:55.610Z,419.95
2019-05-30T07:36:54.617Z,420.40
2019-05-30T07:37:54.598Z,420.15
2019-05-30T07:38:54.578Z,420.43
2019-05-30T07:39:54.588Z,419.91
2019-05-30T07:40:54.548Z,420.13
2019-05-30T07:42:05.600Z,420.42
2019-05-30T07:42:55.535Z,420.32
2019-05-30T07:43:55.431Z,420.03
2019-05-30T07:44:54.512Z,420.04
2019-05-30T07:45:58.172Z,420.07
2019-05-30T07:46:54.517Z,419.87
2019-05-30T07:47:54.473Z,419.93
2019-05-30T07:48:54.464Z,420.02
2019-05-30T07:49:54.457Z,419.92
2019-05-30T07:50:54.441Z,420.14
2019-05-30T07:51:54.464Z,420.39
2019-05-30T07:52:54.428Z,419.87
2019-05-30T07:53:54.407Z,420.42
2019-05-30T07:54:54.408Z,420.02
2019-05-30T07:55:54.394Z,420.46
2019-05-30T07:56:54.427Z,420.10
2019-05-30T07:57:54.441Z,420.04
2019-05-30T07:58:54.357Z,420.12
2019-05-30T07:59:54.348Z,420.10
2019-05-30T08:00:54.330Z,420.03
2019-05-30T08:01:54.369Z,419.96
2019-05-30T08:02:54.314Z,420.01
2019-05-30T08:03:54.303Z,420.05
2019-05-30T08:04:54.286Z,420.35
2019-05-30T08:05:54.277Z,420.06
2019-05-30T08:06:54.285Z,420.11
2019-05-30T08:07:54.257Z,419.59
2019-05-30T08:08:54.246Z,419.98
2019-05-30T08:09:54.229Z,420.03
2019-05-30T08:11:08.259Z,419.85
2019-05-30T08:11:55.228Z,420.04
2019-05-30T08:12:54.190Z,419.91
2019-05-30T08:13:54.179Z,419.95
2019-05-30T08:14:54.173Z,420.11
2019-05-30T08:15:54.182Z,419.94
2019-05-30T08:16:54.174Z,419.63
2019-05-30T08:17:54.146Z,420.07
2019-05-30T08:18:54.134Z,419.93
2019-05-30T08:19:54.117Z,420.21
2019-05-30T08:20:54.108Z,419.75
2019-05-30T08:21:54.119Z,419.74
2019-05-30T08:22:54.091Z,419.65
2019-05-30T08:23:54.076Z,419.97
2019-05-30T08:24:54.062Z,419.73
2019-05-30T08:25:54.059Z,419.89
2019-05-30T08:26:54.048Z,419.79
2019-05-30T08:27:54.082Z,419.98
2019-05-30T08:28:54.015Z,420.01
2019-05-30T08:29:54.006Z,419.67
2019-05-30T08:30:56.808Z,419.72
2019-05-30T08:31:54.003Z,420.02
2019-05-30T08:32:53.975Z,419.63
2019-05-30T08:33:53.964Z,419.90
2019-05-30T08:34:53.951Z,419.78
2019-05-30T08:35:53.943Z,419.71
2019-05-30T08:36:53.945Z,419.89
2019-05-30T08:37:53.925Z,419.88
2019-05-30T08:38:53.906Z,419.50
2019-05-30T08:39:53.896Z,419.83
2019-05-30T08:40:53.892Z,419.73
2019-05-30T08:41:53.898Z,419.80
2019-05-30T08:42:53.854Z,419.67
2019-05-30T08:43:53.865Z,419.86
2019-05-30T08:44:53.842Z,419.67
2019-05-30T08:45:53.840Z,419.71
2019-05-30T08:46:53.842Z,419.28
2019-05-30T08:47:53.808Z,419.80
2019-05-30T08:48:53.802Z,419.44
2019-05-30T08:49:53.808Z,419.58
2019-05-30T08:50:53.786Z,419.47
2019-05-30T08:51:53.800Z,419.67
2019-05-30T08:52:53.763Z,419.79
2019-05-30T08:53:53.745Z,419.58
2019-05-30T08:54:53.724Z,419.81
2019-05-30T08:55:53.715Z,419.52
2019-05-30T08:56:53.739Z,419.76
2019-05-30T08:57:53.703Z,420.00
2019-05-30T08:58:53.688Z,419.85
2019-05-30T08:59:54.384Z,419.72
2019-05-30T09:00:53.666Z,419.65
2019-05-30T09:01:53.681Z,419.65
2019-05-30T09:02:53.649Z,419.65
2019-05-30T09:03:53.631Z,419.89
2019-05-30T09:04:53.627Z,419.42
2019-05-30T09:06:03.541Z,419.70
2019-05-30T09:06:54.620Z,419.70
2019-05-30T09:07:53.587Z,419.52
2019-05-30T09:08:53.571Z,419.33
2019-05-30T09:09:53.558Z,419.53
2019-05-30T09:10:53.555Z,419.36
2019-05-30T09:11:53.568Z,419.82
2019-05-30T09:12:53.564Z,420.05
2019-05-30T09:13:53.528Z,419.51
2019-05-30T09:14:53.502Z,419.48
2019-05-30T09:15:53.505Z,419.39
2019-05-30T09:16:53.489Z,419.59
2019-05-30T09:17:53.500Z,419.50
2019-05-30T09:18:53.459Z,419.60
2019-05-30T09:19:53.461Z,419.44
2019-05-30T09:20:53.443Z,419.71
2019-05-30T09:21:53.447Z,419.50
2019-05-30T09:22:53.434Z,419.53
2019-05-30T09:23:56.892Z,419.81
2019-05-30T09:24:54.402Z,419.77
2019-05-30T09:25:53.390Z,419.44
2019-05-30T09:26:53.381Z,419.56
2019-05-30T09:27:53.414Z,419.72
2019-05-30T09:28:53.348Z,419.65
2019-05-30T09:29:53.335Z,419.53
2019-05-30T09:30:53.326Z,419.67
2019-05-30T09:31:53.330Z,419.19
2019-05-30T09:32:53.363Z,419.57
2019-05-30T09:33:53.297Z,419.58
2019-05-30T09:34:53.349Z,419.86
2019-05-30T09:35:53.275Z,419.47
2019-05-30T09:36:53.271Z,419.75
2019-05-30T09:37:53.266Z,419.39
2019-05-30T09:38:53.259Z,419.25
2019-05-30T09:39:53.230Z,419.58
2019-05-30T09:40:53.214Z,419.64
2019-05-30T09:41:53.207Z,419.38
2019-05-30T09:42:53.215Z,419.56
2019-05-30T09:43:53.191Z,419.36
2019-05-30T09:44:53.280Z,419.46
2019-05-30T09:45:53.186Z,419.50
2019-05-30T09:46:53.151Z,419.52
2019-05-30T09:47:53.157Z,419.51
2019-05-30T09:48:53.126Z,419.75
2019-05-30T09:49:53.127Z,419.53
2019-05-30T09:50:53.110Z,419.46
2019-05-30T09:51:53.092Z,419.62
2019-05-30T09:52:53.103Z,419.59
2019-05-30T09:53:53.091Z,419.44
2019-05-30T09:54:53.078Z,419.38
2019-05-30T09:55:53.141Z,419.66
2019-05-30T09:56:54.120Z,419.56
2019-05-30T09:57:53.498Z,419.70
2019-05-30T09:58:53.022Z,419.37
2019-05-30T09:59:53.006Z,419.41
2019-05-30T10:00:53.000Z,419.31
2019-05-30T10:01:52.996Z,419.23
2019-05-30T10:02:52.996Z,419.33
2019-05-30T10:03:52.970Z,419.71
2019-05-30T10:04:52.954Z,419.27
2019-05-30T10:05:52.949Z,419.51
2019-05-30T10:06:52.929Z,419.50
2019-05-30T10:07:53.082Z,419.26
2019-05-30T10:08:53.110Z,419.59
2019-05-30T10:09:53.135Z,419.46
2019-05-30T10:10:53.480Z,419.27
2019-05-30T10:11:53.498Z,419.45
2019-05-30T10:12:52.895Z,419.55
2019-05-30T10:13:52.986Z,419.66
2019-05-30T10:14:53.011Z,419.53
2019-05-30T10:15:52.827Z,419.46
2019-05-30T10:16:55.999Z,419.34
2019-05-30T10:17:54.531Z,419.44
2019-05-30T10:18:52.948Z,419.39
2019-05-30T10:19:53.070Z,419.75
2019-05-30T10:20:53.665Z,419.47
2019-05-30T10:21:53.259Z,419.60
2019-05-30T10:22:53.804Z,419.43
2019-05-30T10:23:53.733Z,419.70
2019-05-30T10:24:53.346Z,419.72
2019-05-30T10:25:53.368Z,419.40
2019-05-30T10:26:53.173Z,419.51
2019-05-30T10:27:54.639Z,419.30
2019-05-30T10:28:53.344Z,419.58
2019-05-30T10:29:53.333Z,419.17
2019-05-30T10:30:57.352Z,419.67
2019-05-30T10:31:53.655Z,419.24
2019-05-30T10:32:53.792Z,419.29
2019-05-30T10:33:52.995Z,419.29
2019-05-30T10:34:53.842Z,419.28
2019-05-30T10:35:53.485Z,419.46
2019-05-30T10:36:53.699Z,419.04
2019-05-30T10:37:52.908Z,419.49
2019-05-30T10:38:53.812Z,419.34
2019-05-30T10:39:57.227Z,419.23
2019-05-30T10:40:54.083Z,419.42
2019-05-30T10:41:53.127Z,419.20
2019-05-30T10:42:53.277Z,419.30
2019-05-30T10:43:53.140Z,419.11
2019-05-30T10:44:52.908Z,419.50
2019-05-30T10:45:53.391Z,419.34
2019-05-30T10:46:52.927Z,419.40
2019-05-30T10:47:53.694Z,419.15
2019-05-30T10:48:52.778Z,419.04
2019-05-30T10:49:53.540Z,419.39
2019-05-30T10:50:52.454Z,419.17
2019-05-30T10:51:57.143Z,419.06
2019-05-30T10:52:53.667Z,419.29
2019-05-30T10:53:53.935Z,419.36
2019-05-30T10:54:53.442Z,419.22
2019-05-30T10:55:53.621Z,419.42
2019-05-30T10:56:53.552Z,419.38
2019-05-30T10:57:55.742Z,418.96
2019-05-30T10:58:53.370Z,419.37
2019-05-30T10:59:52.601Z,419.31
2019-05-30T11:00:53.878Z,419.49
2019-05-30T11:01:53.037Z,419.22
2019-05-30T11:02:52.886Z,419.18
2019-05-30T11:03:52.656Z,419.25
2019-05-30T11:04:53.122Z,419.34
2019-05-30T11:05:52.899Z,419.46
2019-05-30T11:07:09.915Z,419.44
2019-05-30T11:08:02.034Z,419.20
2019-05-30T11:08:53.303Z,419.23
2019-05-30T11:09:52.799Z,419.24
2019-05-30T11:10:52.717Z,419.08
2019-05-30T11:11:52.828Z,419.31
2019-05-30T11:12:57.486Z,419.27
2019-05-30T11:13:53.328Z,419.17
2019-05-30T11:14:53.737Z,418.92
2019-05-30T11:15:53.501Z,419.34
2019-05-30T11:16:53.657Z,419.13
2019-05-30T11:17:53.333Z,419.15
2019-05-30T11:18:53.135Z,419.28
2019-05-30T11:19:52.139Z,419.30
2019-05-30T11:20:52.384Z,419.10
2019-05-30T11:21:52.794Z,419.10
2019-05-30T11:22:53.345Z,419.03
2019-05-30T11:23:52.610Z,419.04
2019-05-30T11:24:52.746Z,419.09
2019-05-30T11:25:52.596Z,419.29
2019-05-30T11:26:52.596Z,419.15
2019-05-30T11:27:52.694Z,419.48
2019-05-30T11:28:52.600Z,418.88
2019-05-30T11:29:52.953Z,419.30
2019-05-30T11:30:52.740Z,419.33
2019-05-30T11:31:52.899Z,418.99
2019-05-30T11:32:53.077Z,419.44
2019-05-30T11:33:52.879Z,419.16
2019-05-30T11:34:53.029Z,419.33
2019-05-30T11:35:52.999Z,419.08
2019-05-30T11:36:53.010Z,419.28
2019-05-30T11:37:52.993Z,419.45
2019-05-30T11:38:52.457Z,419.29
2019-05-30T11:39:53.164Z,419.21
2019-05-30T11:40:51.919Z,419.01
2019-05-30T11:41:51.873Z,419.01
2019-05-30T11:42:51.865Z,419.05
2019-05-30T11:43:51.853Z,418.95
2019-05-30T11:44:51.849Z,419.08
2019-05-30T11:45:51.831Z,419.23
2019-05-30T11:46:51.829Z,419.36
2019-05-30T11:47:51.826Z,419.19
2019-05-30T11:48:51.803Z,418.96
2019-05-30T11:49:51.807Z,418.94
2019-05-30T11:50:52.071Z,419.19
2019-05-30T11:51:51.769Z,419.23
2019-05-30T11:52:51.820Z,419.27
2019-05-30T11:53:51.832Z,419.04
2019-05-30T11:54:52.069Z,419.26
2019-05-30T11:55:52.317Z,418.83
2019-05-30T11:56:52.046Z,419.07
2019-05-30T11:57:52.069Z,419.21
2019-05-30T11:58:52.025Z,419.10
2019-05-30T11:59:52.168Z,419.16
2019-05-30T12:00:53.065Z,418.84
2019-05-30T12:01:52.905Z,418.57
2019-05-30T12:02:52.172Z,419.05
2019-05-30T12:03:52.549Z,419.15
2019-05-30T12:04:52.552Z,418.89
2019-05-30T12:05:52.515Z,418.85
2019-05-30T12:06:53.021Z,418.85
2019-05-30T12:07:52.803Z,418.77
2019-05-30T12:08:52.686Z,419.10
2019-05-30T12:09:52.803Z,418.83
2019-05-30T12:10:52.973Z,418.92
2019-05-30T12:11:51.548Z,419.16
2019-05-30T12:12:51.535Z,418.87
2019-05-30T12:13:51.796Z,418.76
2019-05-30T12:14:51.545Z,419.17
2019-05-30T12:15:51.539Z,418.68
2019-05-30T12:16:51.497Z,419.08
2019-05-30T12:17:51.475Z,418.74
2019-05-30T12:18:51.496Z,419.27
2019-05-30T12:19:51.478Z,418.88
2019-05-30T12:20:52.028Z,419.01
2019-05-30T12:21:51.571Z,419.32
2019-05-30T12:22:51.749Z,418.92
2019-05-30T12:23:51.916Z,418.92
2019-05-30T12:24:51.737Z,418.75
2019-05-30T12:25:51.954Z,419.19
2019-05-30T12:26:51.859Z,419.25
2019-05-30T12:27:52.046Z,419.33